Bath, United Kingdom

5:18 PM GMT on December 22, 2014 (GMT +0000)
Lower Weston | Change Station
CLOSE
Current Station
Personal Weather Station
Location: Bath, Somerset
Elevation: 118 ft
Nearby Weather Stations

Elev 118 ft 51.39 °N, 2.38 °W | Updated 2 seconds ago

Scattered Clouds
Scattered Clouds
52.3 °F
Feels Like 52.3 °F
N
8.1
Wind Variable Wind from West
Gusts 8.1 mph

Today
High -- | Low -- °F
--% Chance of Precip.
Yesterday
High -- | Low -- °F
Precip. -- in
8:12 AM 4:03 PM
New Moon, 1% visible
Pressure 30.06 in
Visibility 6.2 miles
Clouds Few 2000 ft
Scattered Clouds 3500 ft
Dew Point 46 °F
Humidity 78%
Rainfall 0.00 in
Snow Depth Not available.
UV 0 out of 12
Pollen Not available.
Air Quality Not available.
Flu Activity Not available.
METAR EGGD 221650Z 24019KT 9999 FEW020 SCT035 10/07 Q1018

More Conditions Fewer Conditions

Pressure 30.06 in
Visibility 6.2 miles
Clouds Few 2000 ft
Scattered Clouds 3500 ft
Dew Point 46 °F
Humidity 78%
Rainfall 0.00 in
Snow Depth Not available.
UV 0 out of 12
Pollen Not available.
Air Quality Not available.
Flu Activity Not available.
METAR EGGD 221650Z 24019KT 9999 FEW020 SCT035 10/07 Q1018

More Conditions Fewer Conditions

10-Day Weather Forecast

Almanac

Astronomy

Dec. 22, 2014 Rise Set
Actual Time
Civil Twilight
Nautical Twilight
Astronomical Twilight
Moon
Length of Visible Light
Length of Day
Tomorrow will be .
, % of the Moon is Illuminated

Today's Extremes

Country Highs Country Lows

Community

WunderPhotos

Upload Photos

1,779,651 photos uploaded!

WunderBlogs® & News

Nearby

Air Quality

  Air Quality AQ Index Pollutant
Not available.

Snow Depth

Station Depth Elevation

Earthquake Activity

City Distance Mag. Time & Date
Minimum magnitude displayed is 2.5.

Coastal Water Temperatures

Place Temperature

Nearby Weather Stations